createdAt,value
2018-08-17T00:00:50.503Z,32.3
2018-08-17T00:01:52.699Z,32.3
2018-08-17T00:02:55.134Z,32.3
2018-08-17T00:03:57.589Z,32.3
2018-08-17T00:04:59.769Z,32.3
2018-08-17T00:06:01.934Z,32.3
2018-08-17T00:07:04.378Z,32.3
2018-08-17T00:08:06.824Z,32.3
2018-08-17T00:09:09.257Z,32.3
2018-08-17T00:10:11.717Z,32.3
2018-08-17T00:11:13.607Z,32.3
2018-08-17T00:12:16.044Z,32.3
2018-08-17T00:13:18.490Z,32.3
2018-08-17T00:14:20.941Z,32.3
2018-08-17T00:15:22.577Z,32.4
2018-08-17T00:16:25.018Z,32.4
2018-08-17T00:17:27.196Z,32.4
2018-08-17T00:18:44.309Z,32.4
2018-08-17T00:19:46.217Z,32.4
2018-08-17T00:20:47.846Z,32.4
2018-08-17T00:21:50.289Z,32.4
2018-08-17T00:22:52.741Z,32.4
2018-08-17T00:23:55.177Z,32.4
2018-08-17T00:24:57.356Z,32.4
2018-08-17T00:25:59.803Z,32.4
2018-08-17T00:27:01.982Z,32.4
2018-08-17T00:28:04.432Z,32.4
2018-08-17T00:29:06.340Z,32.4
2018-08-17T00:30:08.525Z,32.4
2018-08-17T00:31:10.133Z,32.5
2018-08-17T00:32:12.595Z,32.5
2018-08-17T00:33:14.770Z,32.5
2018-08-17T00:34:16.931Z,32.5
2018-08-17T00:35:19.095Z,32.5
2018-08-17T00:36:21.549Z,32.5
2018-08-17T00:37:23.715Z,32.5
2018-08-17T00:38:25.883Z,32.5
2018-08-17T00:39:27.532Z,32.5
2018-08-17T00:40:29.424Z,32.5
2018-08-17T00:41:31.606Z,32.5
2018-08-17T00:42:33.510Z,32.5
2018-08-17T00:43:35.958Z,32.5
2018-08-17T00:44:38.137Z,32.5
2018-08-17T00:45:40.575Z,32.5
2018-08-17T00:46:43.017Z,32.5
2018-08-17T00:47:45.461Z,32.5
2018-08-17T00:48:47.906Z,32.5
2018-08-17T00:49:50.360Z,32.5
2018-08-17T00:50:52.800Z,32.5
2018-08-17T00:51:55.296Z,32.5
2018-08-17T00:52:57.440Z,32.5
2018-08-17T00:53:59.900Z,32.5
2018-08-17T00:55:01.804Z,32.5
2018-08-17T00:56:03.952Z,32.5
2018-08-17T00:57:06.419Z,32.5
2018-08-17T00:58:08.588Z,32.5
2018-08-17T00:59:10.745Z,32.5
2018-08-17T01:00:12.659Z,32.5
2018-08-17T01:01:14.555Z,32.5
2018-08-17T01:02:17.003Z,32.5
2018-08-17T01:03:19.186Z,32.5
2018-08-17T01:04:21.643Z,32.5
2018-08-17T01:05:24.094Z,32.5
2018-08-17T01:06:26.542Z,32.5
2018-08-17T01:07:28.710Z,32.6
2018-08-17T01:08:31.165Z,32.5
2018-08-17T01:09:33.352Z,32.6
2018-08-17T01:10:35.800Z,32.6
2018-08-17T01:11:38.243Z,32.6
2018-08-17T01:12:40.134Z,32.6
2018-08-17T01:13:42.587Z,32.6
2018-08-17T01:14:44.759Z,32.6
2018-08-17T01:15:46.969Z,32.6
2018-08-17T01:16:49.418Z,32.6
2018-08-17T01:17:51.857Z,32.6
2018-08-17T01:18:53.765Z,32.6
2018-08-17T01:19:56.215Z,32.6
2018-08-17T01:20:58.664Z,32.6
2018-08-17T01:22:00.852Z,32.6
2018-08-17T01:23:03.292Z,32.6
2018-08-17T01:24:05.465Z,32.6
2018-08-17T01:25:07.914Z,32.6
2018-08-17T01:26:10.361Z,32.6
2018-08-17T01:27:12.808Z,32.6
2018-08-17T01:28:14.976Z,32.6
2018-08-17T01:29:17.424Z,32.6
2018-08-17T01:30:19.865Z,32.6
2018-08-17T01:31:22.061Z,32.6
2018-08-17T01:32:23.956Z,32.6
2018-08-17T01:33:26.121Z,32.6
2018-08-17T01:34:28.573Z,32.6
2018-08-17T01:35:30.755Z,32.6
2018-08-17T01:36:32.370Z,32.6
2018-08-17T01:37:34.539Z,32.6
2018-08-17T01:38:36.541Z,32.6
2018-08-17T01:39:38.981Z,32.6
2018-08-17T01:40:41.425Z,32.6
2018-08-17T01:41:43.881Z,32.6
2018-08-17T01:42:46.070Z,32.6
2018-08-17T01:43:48.528Z,32.6
2018-08-17T01:44:50.716Z,32.6
2018-08-17T01:45:52.603Z,32.6
2018-08-17T01:46:54.784Z,32.6
2018-08-17T01:47:57.245Z,32.6
2018-08-17T01:48:59.701Z,32.6
2018-08-17T01:50:02.152Z,32.6
2018-08-17T01:51:04.596Z,32.6
2018-08-17T01:52:07.074Z,32.6
2018-08-17T01:53:09.279Z,32.6
2018-08-17T01:54:11.734Z,32.7
2018-08-17T01:55:13.928Z,32.6
2018-08-17T01:56:16.383Z,32.6
2018-08-17T01:57:18.819Z,32.7
2018-08-17T01:58:20.724Z,32.7
2018-08-17T01:59:22.882Z,32.7
2018-08-17T02:00:25.345Z,32.7
2018-08-17T02:01:27.564Z,32.6
2018-08-17T02:02:29.760Z,32.7
2018-08-17T02:03:31.929Z,32.7
2018-08-17T02:04:34.377Z,32.6
2018-08-17T02:05:36.270Z,32.7
2018-08-17T02:06:38.718Z,32.7
2018-08-17T02:07:40.907Z,32.7
2018-08-17T02:08:43.352Z,32.7
2018-08-17T02:09:45.811Z,32.7
2018-08-17T02:10:48.270Z,32.7
2018-08-17T02:11:50.421Z,32.7
2018-08-17T02:12:52.296Z,32.7
2018-08-17T02:13:54.736Z,32.7
2018-08-17T02:14:57.179Z,32.7
2018-08-17T02:15:59.062Z,32.7
2018-08-17T02:17:01.251Z,32.7
2018-08-17T02:18:03.704Z,32.7
2018-08-17T02:19:06.177Z,32.7
2018-08-17T02:20:08.357Z,32.7
2018-08-17T02:21:10.537Z,32.7
2018-08-17T02:22:12.705Z,32.7
2018-08-17T02:23:14.609Z,32.7
2018-08-17T02:24:16.833Z,32.7
2018-08-17T02:25:19.020Z,32.7
2018-08-17T02:26:21.472Z,32.7
2018-08-17T02:27:23.651Z,32.7
2018-08-17T02:28:25.827Z,32.7
2018-08-17T02:29:27.712Z,32.7
2018-08-17T02:30:30.158Z,32.7
2018-08-17T02:31:32.605Z,32.7
2018-08-17T02:32:34.781Z,32.7
2018-08-17T02:33:37.225Z,32.7
2018-08-17T02:34:39.111Z,32.7
2018-08-17T02:35:41.559Z,32.7
2018-08-17T02:36:44.013Z,32.7
2018-08-17T02:37:45.925Z,32.7
2018-08-17T02:38:48.385Z,32.7
2018-08-17T02:39:50.844Z,32.7
2018-08-17T02:40:53.016Z,32.7
2018-08-17T02:41:55.194Z,32.7
2018-08-17T02:42:57.640Z,32.7
2018-08-17T02:43:59.819Z,32.7
2018-08-17T02:45:01.720Z,32.7
2018-08-17T02:46:04.165Z,32.7
2018-08-17T02:47:06.068Z,32.7
2018-08-17T02:48:08.506Z,32.7
2018-08-17T02:49:10.969Z,32.7
2018-08-17T02:50:13.142Z,32.7
2018-08-17T02:51:15.015Z,32.7
2018-08-17T02:52:17.197Z,32.7
2018-08-17T02:53:19.644Z,32.7
2018-08-17T02:54:21.554Z,32.7
2018-08-17T02:55:24.004Z,32.7
2018-08-17T02:56:26.456Z,32.7
2018-08-17T02:57:28.349Z,32.7
2018-08-17T02:58:30.529Z,32.7
2018-08-17T02:59:32.973Z,32.7
2018-08-17T03:00:35.305Z,32.7
2018-08-17T03:01:37.181Z,32.7
2018-08-17T03:02:38.813Z,32.7
2018-08-17T03:03:41.267Z,32.7
2018-08-17T03:04:43.451Z,32.7
2018-08-17T03:05:45.351Z,32.7
2018-08-17T03:06:47.230Z,32.6
2018-08-17T03:07:49.394Z,32.6
2018-08-17T03:08:51.287Z,32.6
2018-08-17T03:09:53.464Z,32.6
2018-08-17T03:10:55.908Z,32.6
2018-08-17T03:11:58.084Z,32.6
2018-08-17T03:12:59.964Z,32.6
2018-08-17T03:14:02.166Z,32.6
2018-08-17T03:15:04.066Z,32.6
2018-08-17T03:16:06.518Z,32.5
2018-08-17T03:17:08.451Z,32.5
2018-08-17T03:18:10.049Z,32.5
2018-08-17T03:19:12.487Z,32.5
2018-08-17T03:20:14.961Z,32.5
2018-08-17T03:21:17.125Z,32.5
2018-08-17T03:22:19.584Z,32.5
2018-08-17T03:23:21.495Z,32.5
2018-08-17T03:24:23.939Z,32.5
2018-08-17T03:25:26.401Z,32.5
2018-08-17T03:26:28.855Z,32.5
2018-08-17T03:27:31.040Z,32.5
2018-08-17T03:28:33.174Z,32.4
2018-08-17T03:29:34.814Z,32.4
2018-08-17T03:30:36.757Z,32.4
2018-08-17T03:31:38.658Z,32.4
2018-08-17T03:32:40.833Z,32.4
2018-08-17T03:33:43.005Z,32.4
2018-08-17T03:34:45.191Z,32.4
2018-08-17T03:35:47.355Z,32.4
2018-08-17T03:36:49.816Z,32.3
2018-08-17T03:37:51.997Z,32.3
2018-08-17T03:38:53.906Z,32.3
2018-08-17T03:39:56.083Z,32.3
2018-08-17T03:40:58.526Z,32.3
2018-08-17T03:42:00.965Z,32.3
2018-08-17T03:43:03.148Z,32.3
2018-08-17T03:44:05.585Z,32.3
2018-08-17T03:45:07.755Z,32.3
2018-08-17T03:46:09.893Z,32.3
2018-08-17T03:47:12.335Z,32.3
2018-08-17T03:48:14.774Z,32.3
2018-08-17T03:49:17.226Z,32.3
2018-08-17T03:50:19.665Z,32.3
2018-08-17T03:51:21.839Z,32.3
2018-08-17T03:52:24.002Z,32.3
2018-08-17T03:53:26.169Z,32.3
2018-08-17T03:54:28.620Z,32.3
2018-08-17T03:55:30.782Z,32.3
2018-08-17T03:56:32.413Z,32.3
2018-08-17T03:57:34.607Z,32.3
2018-08-17T03:58:36.530Z,32.3
2018-08-17T03:59:39.341Z,32.3
2018-08-17T04:00:41.836Z,32.3
2018-08-17T04:01:44.033Z,32.3
2018-08-17T04:02:46.541Z,32.3
2018-08-17T04:03:48.720Z,32.2
2018-08-17T04:04:51.181Z,32.3
2018-08-17T04:05:53.627Z,32.2
2018-08-17T04:06:55.817Z,32.2
2018-08-17T04:07:58.260Z,32.2
2018-08-17T04:09:00.730Z,32.2
2018-08-17T04:10:02.599Z,32.2
2018-08-17T04:11:05.055Z,32.2
2018-08-17T04:12:06.944Z,32.2
2018-08-17T04:13:09.121Z,32.2
2018-08-17T04:14:11.575Z,32.2
2018-08-17T04:15:14.013Z,32.2
2018-08-17T04:16:15.906Z,32.2
2018-08-17T04:17:17.797Z,32.2
2018-08-17T04:18:20.236Z,32.2
2018-08-17T04:19:22.423Z,32.2
2018-08-17T04:20:24.600Z,32.2
2018-08-17T04:21:26.766Z,32.2
2018-08-17T04:22:28.965Z,32.2
2018-08-17T04:23:30.900Z,32.2
2018-08-17T04:24:33.350Z,32.2
2018-08-17T04:25:35.786Z,32.2
2018-08-17T04:26:38.230Z,32.2
2018-08-17T04:27:40.664Z,32.2
2018-08-17T04:28:42.843Z,32.2
2018-08-17T04:29:44.750Z,32.2
2018-08-17T04:30:47.190Z,32.1
2018-08-17T04:31:49.387Z,32.1
2018-08-17T04:32:51.531Z,32.1
2018-08-17T04:33:53.967Z,32.1
2018-08-17T04:34:56.411Z,32.1
2018-08-17T04:35:58.876Z,32.1
2018-08-17T04:37:01.028Z,32.1
2018-08-17T04:38:03.204Z,32.1
2018-08-17T04:39:05.711Z,32.1
2018-08-17T04:40:07.895Z,32.1
2018-08-17T04:41:10.046Z,32.1
2018-08-17T04:42:12.224Z,32.1
2018-08-17T04:43:14.666Z,32.1
2018-08-17T04:44:16.836Z,32.1
2018-08-17T04:45:19.290Z,32.1
2018-08-17T04:46:21.194Z,32.1
2018-08-17T04:47:23.359Z,32.1
2018-08-17T04:48:25.800Z,32.1
2018-08-17T04:49:27.979Z,32.1
2018-08-17T04:50:30.435Z,32.1
2018-08-17T04:51:32.616Z,32.1
2018-08-17T04:52:34.772Z,32.1
2018-08-17T04:53:36.934Z,32.1
2018-08-17T04:54:38.839Z,32.1
2018-08-17T04:55:41.285Z,32.1
2018-08-17T04:56:43.433Z,32.1
2018-08-17T04:57:45.311Z,32.1
2018-08-17T04:58:47.494Z,32.1
2018-08-17T04:59:49.966Z,32.1
2018-08-17T05:00:52.411Z,32.1
2018-08-17T05:01:54.858Z,32.1
2018-08-17T05:02:57.036Z,32
2018-08-17T05:03:59.236Z,32.1
2018-08-17T05:05:01.414Z,32
2018-08-17T05:06:03.328Z,32
2018-08-17T05:07:05.775Z,32
2018-08-17T05:08:08.217Z,32.1
2018-08-17T05:09:10.105Z,32
2018-08-17T05:10:12.273Z,32
2018-08-17T05:11:14.719Z,32
2018-08-17T05:12:16.616Z,32
2018-08-17T05:13:19.050Z,32
2018-08-17T05:14:20.954Z,32
2018-08-17T05:15:22.861Z,32
2018-08-17T05:16:25.317Z,32
2018-08-17T05:17:27.491Z,32
2018-08-17T05:18:29.356Z,32
2018-08-17T05:19:31.797Z,32
2018-08-17T05:20:33.973Z,32
2018-08-17T05:21:36.634Z,32
2018-08-17T05:22:39.026Z,32
2018-08-17T05:23:41.170Z,32
2018-08-17T05:24:43.071Z,32
2018-08-17T05:25:45.516Z,32
2018-08-17T05:26:47.698Z,32
2018-08-17T05:27:49.880Z,32
2018-08-17T05:28:52.313Z,32
2018-08-17T05:29:54.502Z,32
2018-08-17T05:30:56.947Z,32
2018-08-17T05:31:59.116Z,32
2018-08-17T05:33:01.309Z,32
2018-08-17T05:34:03.489Z,32
2018-08-17T05:35:05.663Z,32
2018-08-17T05:36:08.266Z,32
2018-08-17T05:37:10.457Z,32
2018-08-17T05:38:12.901Z,32
2018-08-17T05:39:15.061Z,32
2018-08-17T05:40:17.209Z,32
2018-08-17T05:41:19.663Z,32
2018-08-17T05:42:22.108Z,32
2018-08-17T05:43:24.562Z,32
2018-08-17T05:44:27.005Z,32
2018-08-17T05:45:28.901Z,32
2018-08-17T05:46:31.376Z,32
2018-08-17T05:47:33.827Z,32
2018-08-17T05:48:36.001Z,32
2018-08-17T05:49:38.456Z,32
2018-08-17T05:50:40.626Z,32
2018-08-17T05:51:42.522Z,32
2018-08-17T05:52:44.708Z,32
2018-08-17T05:53:46.599Z,32
2018-08-17T05:54:49.054Z,32
2018-08-17T05:55:51.514Z,32
2018-08-17T05:56:53.949Z,32
2018-08-17T05:57:56.130Z,32
2018-08-17T05:58:58.310Z,32
2018-08-17T06:00:00.492Z,32
2018-08-17T06:01:02.673Z,32
2018-08-17T06:02:04.867Z,32
2018-08-17T06:03:06.777Z,32
2018-08-17T06:04:09.220Z,32
2018-08-17T06:05:11.397Z,32
2018-08-17T06:06:13.844Z,32
2018-08-17T06:07:16.291Z,32
2018-08-17T06:08:18.202Z,32
2018-08-17T06:09:20.376Z,32
2018-08-17T06:10:22.554Z,32
2018-08-17T06:11:25.355Z,32
2018-08-17T06:12:28.149Z,32
2018-08-17T06:13:30.077Z,32
2018-08-17T06:14:32.260Z,32
2018-08-17T06:15:34.429Z,32
2018-08-17T06:16:36.336Z,32
2018-08-17T06:17:38.787Z,32
2018-08-17T06:18:40.715Z,32
2018-08-17T06:19:43.168Z,32
2018-08-17T06:20:45.624Z,32
2018-08-17T06:21:48.101Z,32
2018-08-17T06:22:50.590Z,32
2018-08-17T06:23:52.761Z,32
2018-08-17T06:24:54.930Z,32
2018-08-17T06:25:57.076Z,32
2018-08-17T06:26:59.527Z,32
2018-08-17T06:28:01.976Z,32
2018-08-17T06:29:04.422Z,32
2018-08-17T06:30:06.879Z,32
2018-08-17T06:31:08.750Z,32
2018-08-17T06:32:10.931Z,32
2018-08-17T06:33:13.385Z,32
2018-08-17T06:34:15.846Z,32
2018-08-17T06:35:18.301Z,31.9
2018-08-17T06:36:20.505Z,32
2018-08-17T06:37:23.190Z,32
2018-08-17T06:38:25.567Z,32
2018-08-17T06:39:28.014Z,32
2018-08-17T06:40:30.189Z,32
2018-08-17T06:41:32.637Z,32
2018-08-17T06:42:35.119Z,32
2018-08-17T06:43:37.560Z,32
2018-08-17T06:44:39.479Z,32
2018-08-17T06:45:41.654Z,31.9
2018-08-17T06:46:43.846Z,31.9
2018-08-17T06:47:46.297Z,31.9
2018-08-17T06:48:48.745Z,31.9
2018-08-17T06:49:51.203Z,31.9
2018-08-17T06:50:54.140Z,32
2018-08-17T06:51:57.066Z,32
2018-08-17T06:52:59.514Z,31.9
2018-08-17T06:54:01.961Z,31.9
2018-08-17T06:55:04.140Z,31.9
2018-08-17T06:56:06.327Z,32
2018-08-17T06:57:08.550Z,32
2018-08-17T06:58:11.134Z,31.9
2018-08-17T06:59:13.062Z,31.9
2018-08-17T07:00:14.970Z,31.9
2018-08-17T07:01:17.475Z,31.9
2018-08-17T07:02:19.640Z,31.9
2018-08-17T07:03:21.808Z,31.9
2018-08-17T07:04:24.256Z,31.9
2018-08-17T07:05:26.724Z,31.9
2018-08-17T07:06:29.173Z,31.9
2018-08-17T07:07:31.635Z,32
2018-08-17T07:08:33.605Z,31.9
2018-08-17T07:09:36.522Z,31.9
2018-08-17T07:10:38.944Z,31.9
2018-08-17T07:11:41.122Z,31.9
2018-08-17T07:12:43.620Z,31.9
2018-08-17T07:13:46.054Z,31.9
2018-08-17T07:14:48.511Z,31.9
2018-08-17T07:15:50.686Z,32
2018-08-17T07:16:53.146Z,31.9
2018-08-17T07:17:55.616Z,31.9
2018-08-17T07:18:58.069Z,31.9
2018-08-17T07:20:00.514Z,31.9
2018-08-17T07:21:02.969Z,31.9
2018-08-17T07:22:05.138Z,31.9
2018-08-17T07:23:07.026Z,31.9
2018-08-17T07:24:08.614Z,31.9
2018-08-17T07:25:11.071Z,31.9
2018-08-17T07:26:13.262Z,31.9
2018-08-17T07:27:15.411Z,31.9
2018-08-17T07:28:17.603Z,31.9
2018-08-17T07:29:20.127Z,31.9
2018-08-17T07:30:22.576Z,31.9
2018-08-17T07:31:25.022Z,31.9
2018-08-17T07:32:27.467Z,31.9
2018-08-17T07:33:29.918Z,31.9
2018-08-17T07:34:32.102Z,31.9
2018-08-17T07:35:34.406Z,31.9
2018-08-17T07:36:36.598Z,31.9
2018-08-17T07:37:38.510Z,31.9
2018-08-17T07:38:40.689Z,31.9
2018-08-17T07:39:42.855Z,31.9
2018-08-17T07:40:45.327Z,31.9
2018-08-17T07:41:47.731Z,31.9
2018-08-17T07:42:50.073Z,31.9
2018-08-17T07:43:52.247Z,31.9
2018-08-17T07:44:54.698Z,31.9
2018-08-17T07:45:56.849Z,31.9
2018-08-17T07:46:59.306Z,31.9
2018-08-17T07:48:02.116Z,31.9
2018-08-17T07:49:03.867Z,31.9
2018-08-17T07:50:06.317Z,31.9
2018-08-17T07:51:08.773Z,31.9
2018-08-17T07:52:10.406Z,31.9
2018-08-17T07:53:12.283Z,31.9
2018-08-17T07:54:14.459Z,31.9
2018-08-17T07:55:16.643Z,31.9
2018-08-17T07:56:18.819Z,31.9
2018-08-17T07:57:21.005Z,31.9
2018-08-17T07:58:23.185Z,31.9
2018-08-17T07:59:25.351Z,31.9
2018-08-17T08:00:27.550Z,31.9
2018-08-17T08:01:29.983Z,31.9
2018-08-17T08:02:32.180Z,31.9
2018-08-17T08:03:34.640Z,31.9
2018-08-17T08:04:37.087Z,31.9
2018-08-17T08:05:39.268Z,31.9
2018-08-17T08:06:41.713Z,31.9
2018-08-17T08:07:44.155Z,31.9
2018-08-17T08:08:46.330Z,31.9
2018-08-17T08:09:48.209Z,31.9
2018-08-17T08:10:50.373Z,31.9
2018-08-17T08:11:52.280Z,31.9
2018-08-17T08:12:54.733Z,31.9
2018-08-17T08:13:57.183Z,31.9
2018-08-17T08:14:59.616Z,31.9
2018-08-17T08:16:01.796Z,31.9
2018-08-17T08:17:03.673Z,31.9
2018-08-17T08:18:05.600Z,31.9
2018-08-17T08:19:07.482Z,31.9
2018-08-17T08:20:09.718Z,31.9
2018-08-17T08:21:12.205Z,31.9
2018-08-17T08:22:14.658Z,31.9
2018-08-17T08:23:17.110Z,31.9
2018-08-17T08:24:19.556Z,31.9
2018-08-17T08:25:22.014Z,31.9
2018-08-17T08:26:24.236Z,31.9
2018-08-17T08:27:26.687Z,31.9
2018-08-17T08:28:28.588Z,31.9
2018-08-17T08:29:31.024Z,31.9
2018-08-17T08:30:33.200Z,31.9
2018-08-17T08:31:35.697Z,31.9
2018-08-17T08:32:38.202Z,31.9
2018-08-17T08:33:40.654Z,31.9
2018-08-17T08:34:42.575Z,31.9
2018-08-17T08:35:44.452Z,31.9
2018-08-17T08:36:46.643Z,31.9
2018-08-17T08:37:49.110Z,31.9
2018-08-17T08:38:51.540Z,31.9
2018-08-17T08:39:53.827Z,31.9
2018-08-17T08:40:56.135Z,31.9
2018-08-17T08:41:58.580Z,31.9
2018-08-17T08:43:00.731Z,31.9
2018-08-17T08:44:02.918Z,31.9
2018-08-17T08:45:05.364Z,31.9
2018-08-17T08:46:07.281Z,31.9
2018-08-17T08:47:09.749Z,31.9
2018-08-17T08:48:11.888Z,31.9
2018-08-17T08:49:14.350Z,31.9
2018-08-17T08:50:16.807Z,31.9
2018-08-17T08:51:19.268Z,31.9
2018-08-17T08:52:21.730Z,31.9
2018-08-17T08:53:24.175Z,31.9
2018-08-17T08:54:26.348Z,31.9
2018-08-17T08:55:28.281Z,31.9
2018-08-17T08:56:30.731Z,31.9
2018-08-17T08:57:32.905Z,31.9
2018-08-17T08:58:35.077Z,31.9
2018-08-17T08:59:37.542Z,31.9
2018-08-17T09:00:39.727Z,31.9
2018-08-17T09:01:42.416Z,31.9
2018-08-17T09:02:44.649Z,31.9
2018-08-17T09:03:46.861Z,31.9
2018-08-17T09:04:49.026Z,31.9
2018-08-17T09:05:51.483Z,32
2018-08-17T09:06:53.675Z,32
2018-08-17T09:07:55.851Z,32
2018-08-17T09:08:58.027Z,32
2018-08-17T09:10:00.483Z,32
2018-08-17T09:11:02.706Z,32
2018-08-17T09:12:05.172Z,32
2018-08-17T09:13:07.360Z,32
2018-08-17T09:14:09.258Z,32
2018-08-17T09:15:11.187Z,32
2018-08-17T09:16:13.370Z,32
2018-08-17T09:17:15.816Z,32
2018-08-17T09:18:18.023Z,32
2018-08-17T09:19:20.191Z,32
2018-08-17T09:20:22.852Z,32
2018-08-17T09:21:25.133Z,32
2018-08-17T09:22:27.632Z,32
2018-08-17T09:23:30.080Z,32
2018-08-17T09:24:32.534Z,32
2018-08-17T09:25:34.728Z,32
2018-08-17T09:26:36.625Z,32
2018-08-17T09:27:39.083Z,32
2018-08-17T09:28:41.291Z,32
2018-08-17T09:29:43.222Z,32
2018-08-17T09:30:45.409Z,32
2018-08-17T09:31:48.022Z,32
2018-08-17T09:32:49.906Z,32
2018-08-17T09:33:51.816Z,32
2018-08-17T09:34:54.257Z,32
2018-08-17T09:35:56.758Z,32
2018-08-17T09:36:59.255Z,32
2018-08-17T09:38:01.704Z,32
2018-08-17T09:39:03.897Z,32
2018-08-17T09:40:05.819Z,32
2018-08-17T09:41:07.999Z,32
2018-08-17T09:42:10.430Z,32
2018-08-17T09:43:12.600Z,32
2018-08-17T09:44:15.051Z,32
2018-08-17T09:45:17.240Z,32
2018-08-17T09:46:19.682Z,32
2018-08-17T09:47:21.873Z,32
2018-08-17T09:48:23.752Z,32
2018-08-17T09:49:25.912Z,32
2018-08-17T09:50:28.375Z,32
2018-08-17T09:51:30.741Z,32
2018-08-17T09:52:33.200Z,32
2018-08-17T09:53:35.106Z,32
2018-08-17T09:54:37.558Z,32
2018-08-17T09:55:39.997Z,32
2018-08-17T09:56:42.217Z,32.1
2018-08-17T09:57:45.154Z,32
2018-08-17T09:58:47.644Z,32.1
2018-08-17T09:59:49.543Z,32.1
2018-08-17T10:00:51.992Z,32
2018-08-17T10:01:54.446Z,32.1
2018-08-17T10:02:56.895Z,32
2018-08-17T10:03:59.417Z,32
2018-08-17T10:05:01.727Z,32
2018-08-17T10:06:03.626Z,32
2018-08-17T10:07:06.068Z,32.1
2018-08-17T10:08:07.956Z,32
2018-08-17T10:09:10.408Z,32
2018-08-17T10:10:12.568Z,32
2018-08-17T10:11:14.504Z,32
2018-08-17T10:12:16.376Z,32
2018-08-17T10:13:18.552Z,32
2018-08-17T10:14:20.712Z,32
2018-08-17T10:15:22.883Z,32
2018-08-17T10:16:25.341Z,32
2018-08-17T10:17:27.786Z,32
2018-08-17T10:18:29.959Z,32
2018-08-17T10:19:32.411Z,32
2018-08-17T10:20:34.590Z,32
2018-08-17T10:21:37.803Z,32
2018-08-17T10:22:42.167Z,32
2018-08-17T10:23:44.347Z,32
2018-08-17T10:24:46.802Z,32
2018-08-17T10:25:48.745Z,32
2018-08-17T10:26:50.889Z,32
2018-08-17T10:27:53.347Z,32
2018-08-17T10:28:55.801Z,32
2018-08-17T10:29:58.250Z,32
2018-08-17T10:31:00.699Z,32
2018-08-17T10:32:02.880Z,32
2018-08-17T10:33:05.037Z,32
2018-08-17T10:34:07.952Z,32
2018-08-17T10:35:10.389Z,32
2018-08-17T10:36:12.568Z,32
2018-08-17T10:37:14.747Z,32
2018-08-17T10:38:17.196Z,32
2018-08-17T10:39:19.647Z,32
2018-08-17T10:40:21.571Z,32
2018-08-17T10:41:23.746Z,32
2018-08-17T10:42:25.934Z,32
2018-08-17T10:43:28.376Z,32
2018-08-17T10:44:30.818Z,32
2018-08-17T10:45:33.265Z,32
2018-08-17T10:46:35.488Z,32
2018-08-17T10:47:37.674Z,32
2018-08-17T10:48:39.716Z,32
2018-08-17T10:49:42.282Z,32
2018-08-17T10:50:44.722Z,32
2018-08-17T10:51:47.182Z,32
2018-08-17T10:52:49.610Z,32
2018-08-17T10:53:51.765Z,32
2018-08-17T10:54:54.217Z,32
2018-08-17T10:55:56.403Z,32.1
2018-08-17T10:56:58.604Z,32
2018-08-17T10:58:00.786Z,32.1
2018-08-17T10:59:03.298Z,32.1
2018-08-17T11:00:05.757Z,32.1
2018-08-17T11:01:08.210Z,32.1
2018-08-17T11:02:10.399Z,32.1
2018-08-17T11:03:12.848Z,32.1
2018-08-17T11:04:15.286Z,32.1
2018-08-17T11:05:17.747Z,32.1
2018-08-17T11:06:20.197Z,32.1
2018-08-17T11:07:22.653Z,32.1
2018-08-17T11:08:24.819Z,32.1
2018-08-17T11:09:27.001Z,32.1
2018-08-17T11:10:29.170Z,32.1
2018-08-17T11:11:31.367Z,32.1
2018-08-17T11:12:33.810Z,32.1
2018-08-17T11:13:35.897Z,32.1
2018-08-17T11:14:38.496Z,32.1
2018-08-17T11:15:40.405Z,32
2018-08-17T11:16:42.295Z,32.1
2018-08-17T11:17:44.776Z,32
2018-08-17T11:18:47.227Z,32
2018-08-17T11:19:49.412Z,32
2018-08-17T11:20:51.856Z,32
2018-08-17T11:21:54.036Z,32
2018-08-17T11:22:56.823Z,32
2018-08-17T11:23:59.501Z,32
2018-08-17T11:25:01.960Z,32
2018-08-17T11:26:04.406Z,32
2018-08-17T11:27:06.560Z,32.1
2018-08-17T11:28:09.015Z,32.1
2018-08-17T11:29:11.201Z,32.1
2018-08-17T11:30:13.350Z,32.1
2018-08-17T11:31:15.526Z,32.1
2018-08-17T11:32:17.698Z,32.1
2018-08-17T11:33:19.867Z,32.1
2018-08-17T11:34:22.488Z,32.1
2018-08-17T11:35:24.857Z,32.1
2018-08-17T11:36:27.312Z,32.1
2018-08-17T11:37:29.744Z,32.1
2018-08-17T11:38:32.195Z,32.1
2018-08-17T11:39:33.834Z,32.1
2018-08-17T11:40:36.016Z,32.1
2018-08-17T11:41:37.901Z,32.1
2018-08-17T11:42:40.107Z,32.1
2018-08-17T11:43:42.272Z,32.1
2018-08-17T11:44:44.191Z,32.1
2018-08-17T11:45:46.643Z,32.1
2018-08-17T11:46:48.791Z,32.1
2018-08-17T11:47:50.701Z,32.1
2018-08-17T11:48:52.887Z,32.1
2018-08-17T11:49:55.070Z,32.1
2018-08-17T11:50:57.244Z,32.1
2018-08-17T11:51:59.400Z,32.1
2018-08-17T11:53:01.847Z,32.1
2018-08-17T11:54:04.305Z,32.1
2018-08-17T11:55:06.495Z,32.1
2018-08-17T11:56:08.678Z,32.1
2018-08-17T11:57:10.898Z,32.1
2018-08-17T11:58:13.360Z,32.1
2018-08-17T11:59:15.261Z,32.1
2018-08-17T12:00:17.176Z,32.1
2018-08-17T12:01:19.358Z,32.1
2018-08-17T12:02:21.555Z,32.1
2018-08-17T12:03:23.492Z,32.1
2018-08-17T12:04:25.942Z,32.1
2018-08-17T12:05:27.822Z,32.1
2018-08-17T12:06:30.003Z,32.1
2018-08-17T12:07:32.453Z,32.1
2018-08-17T12:08:35.190Z,32.1
2018-08-17T12:09:37.601Z,32.1
2018-08-17T12:10:39.768Z,32.1
2018-08-17T12:11:42.221Z,32.1
2018-08-17T12:12:44.369Z,32.1
2018-08-17T12:13:45.711Z,32.1
2018-08-17T12:14:48.151Z,32.1
2018-08-17T12:15:50.588Z,32.1
2018-08-17T12:16:53.032Z,32.1
2018-08-17T12:17:54.653Z,32.2
2018-08-17T12:18:57.101Z,32.2
2018-08-17T12:19:59.266Z,32.2
2018-08-17T12:21:01.170Z,32.2
2018-08-17T12:22:03.335Z,32.2
2018-08-17T12:23:05.485Z,32.2
2018-08-17T12:24:07.739Z,32.2
2018-08-17T12:25:10.086Z,32.2
2018-08-17T12:26:12.746Z,32.2
2018-08-17T12:27:14.893Z,32.2
2018-08-17T12:28:17.083Z,32.1
2018-08-17T12:29:19.257Z,32.2
2018-08-17T12:30:20.876Z,32.2
2018-08-17T12:31:23.308Z,32.2
2018-08-17T12:32:25.770Z,32.2
2018-08-17T12:33:27.918Z,32.2
2018-08-17T12:34:30.095Z,32.2
2018-08-17T12:35:32.293Z,32.2
2018-08-17T12:36:34.214Z,32.2
2018-08-17T12:37:36.386Z,32.2
2018-08-17T12:38:38.838Z,32.2
2018-08-17T12:39:41.027Z,32.2
2018-08-17T12:40:43.212Z,32.2
2018-08-17T12:41:45.665Z,32.2
2018-08-17T12:42:48.114Z,32.2
2018-08-17T12:43:50.016Z,32.2
2018-08-17T12:44:52.196Z,32.1
2018-08-17T12:45:54.649Z,32.2
2018-08-17T12:46:56.839Z,32.1
2018-08-17T12:47:59.003Z,32.1
2018-08-17T12:49:01.446Z,32.1
2018-08-17T12:50:03.342Z,32.2
2018-08-17T12:51:05.523Z,32.1
2018-08-17T12:52:08.020Z,32.2
2018-08-17T12:53:10.250Z,32.2
2018-08-17T12:54:12.416Z,32.1
2018-08-17T12:55:14.600Z,32.1
2018-08-17T12:56:17.056Z,32.1
2018-08-17T12:57:19.504Z,32.1
2018-08-17T12:58:21.647Z,32.1
2018-08-17T12:59:24.102Z,32.1
2018-08-17T13:00:26.542Z,32.1
2018-08-17T13:01:29.002Z,32.1
2018-08-17T13:02:31.454Z,32.1
2018-08-17T13:03:33.912Z,32.1
2018-08-17T13:04:35.790Z,32.1
2018-08-17T13:05:38.237Z,32.1
2018-08-17T13:06:40.410Z,32.1
2018-08-17T13:07:42.593Z,32.1
2018-08-17T13:08:45.046Z,32.1
2018-08-17T13:09:47.220Z,32.1
2018-08-17T13:10:49.935Z,32.1
2018-08-17T13:11:51.767Z,32.1
2018-08-17T13:12:54.217Z,32.1
2018-08-17T13:13:56.405Z,32.1
2018-08-17T13:14:58.847Z,32.1
2018-08-17T13:16:01.026Z,32.1
2018-08-17T13:17:03.210Z,32.1
2018-08-17T13:18:05.668Z,32.1
2018-08-17T13:19:08.128Z,32.1
2018-08-17T13:20:10.588Z,32.1
2018-08-17T13:21:12.514Z,32.1
2018-08-17T13:22:14.397Z,32.1
2018-08-17T13:23:16.838Z,32.1
2018-08-17T13:24:19.296Z,32.1
2018-08-17T13:25:21.471Z,32.1
2018-08-17T13:26:23.639Z,32.1
2018-08-17T13:27:25.833Z,32.1
2018-08-17T13:28:27.707Z,32.1
2018-08-17T13:29:29.877Z,32.1
2018-08-17T13:30:31.767Z,32.1
2018-08-17T13:31:34.209Z,32.1
2018-08-17T13:32:36.667Z,32.1
2018-08-17T13:33:38.844Z,32.1
2018-08-17T13:34:41.306Z,32.1
2018-08-17T13:35:43.194Z,32.1
2018-08-17T13:36:45.073Z,32.1
2018-08-17T13:37:47.266Z,32.1
2018-08-17T13:38:48.886Z,32.1
2018-08-17T13:39:51.423Z,32.1
2018-08-17T13:40:53.948Z,32.1
2018-08-17T13:41:56.124Z,32.1
2018-08-17T13:42:58.308Z,32.1
2018-08-17T13:44:00.756Z,32.1
2018-08-17T13:45:03.205Z,32.1
2018-08-17T13:46:05.121Z,32.1
2018-08-17T13:47:07.298Z,32.1
2018-08-17T13:48:09.736Z,32.1
2018-08-17T13:49:11.920Z,32.1
2018-08-17T13:50:14.092Z,32.1
2018-08-17T13:51:16.546Z,32.1
2018-08-17T13:52:18.992Z,32.1
2018-08-17T13:53:21.465Z,32.1
2018-08-17T13:54:23.697Z,32.1
2018-08-17T13:55:26.415Z,32.1
2018-08-17T13:56:28.816Z,32.1
2018-08-17T13:57:30.991Z,32.1
2018-08-17T13:58:33.169Z,32.1
2018-08-17T13:59:35.625Z,32.1
2018-08-17T14:00:38.058Z,32.1
2018-08-17T14:01:40.242Z,32.1
2018-08-17T14:02:42.419Z,32.1
2018-08-17T14:03:44.873Z,32.1